createdAt,value
2023-03-16T00:03:37.134Z,1393
2023-03-16T00:08:55.284Z,1385
2023-03-16T00:14:14.078Z,1383
2023-03-16T00:19:32.849Z,1375
2023-03-16T00:24:51.098Z,1380
2023-03-16T00:30:09.580Z,1377
2023-03-16T00:35:27.784Z,1379
2023-03-16T00:40:45.737Z,1380
2023-03-16T00:46:04.268Z,1374
2023-03-16T00:51:22.360Z,1371
2023-03-16T00:56:40.866Z,1371
2023-03-16T01:01:58.787Z,1402
2023-03-16T01:07:16.708Z,1428
2023-03-16T01:12:34.930Z,1445
2023-03-16T01:17:53.684Z,1461
2023-03-16T01:23:11.893Z,1482
2023-03-16T01:28:30.410Z,1504
2023-03-16T01:33:48.635Z,1521
2023-03-16T01:39:06.540Z,1529
2023-03-16T01:44:24.544Z,1528
2023-03-16T01:49:42.742Z,1543
2023-03-16T01:55:01.230Z,1547
2023-03-16T02:00:19.517Z,1546
2023-03-16T02:05:38.138Z,1549
2023-03-16T02:10:56.946Z,1556
2023-03-16T02:16:15.839Z,1561
2023-03-16T02:21:34.562Z,1559
2023-03-16T02:26:52.774Z,1563
2023-03-16T02:32:11.565Z,1560
2023-03-16T02:37:29.765Z,1561
2023-03-16T02:42:48.258Z,1558
2023-03-16T02:48:06.769Z,1574
2023-03-16T02:53:25.229Z,1579
2023-03-16T02:58:44.007Z,1580
2023-03-16T03:04:02.254Z,1584
2023-03-16T03:09:20.475Z,1593
2023-03-16T03:14:39.248Z,1586
2023-03-16T03:19:57.765Z,1589
2023-03-16T03:25:15.964Z,1588
2023-03-16T03:30:34.750Z,1585
2023-03-16T03:35:37.387Z,1592
2023-03-16T03:40:56.017Z,1590
2023-03-16T03:46:14.288Z,1590
2023-03-16T03:51:32.795Z,1580
2023-03-16T03:56:51.253Z,1575
2023-03-16T04:02:15.416Z,1575
2023-03-16T04:07:34.316Z,1568
2023-03-16T04:12:53.059Z,1567
2023-03-16T04:18:11.840Z,1569
2023-03-16T04:23:30.637Z,1578
2023-03-16T04:28:49.095Z,1576
2023-03-16T04:34:07.350Z,1579
2023-03-16T04:39:25.852Z,1571
2023-03-16T04:44:44.074Z,1558
2023-03-16T04:50:02.569Z,1515
2023-03-16T04:55:20.891Z,1488
2023-03-16T05:00:39.122Z,1460
2023-03-16T05:05:57.972Z,1432
2023-03-16T05:11:16.489Z,1413
2023-03-16T05:16:34.708Z,1402
2023-03-16T05:21:52.908Z,1383
2023-03-16T05:27:11.133Z,1364
2023-03-16T05:32:29.711Z,1346
2023-03-16T05:37:48.102Z,1137
2023-03-16T05:43:06.343Z,1157
2023-03-16T05:48:24.527Z,1152
2023-03-16T05:53:43.042Z,1143
2023-03-16T05:59:01.289Z,1146
2023-03-16T06:04:20.059Z,1142
2023-03-16T06:09:38.217Z,1137
2023-03-16T06:14:56.752Z,1133
2023-03-16T06:20:15.472Z,1125
2023-03-16T06:25:33.696Z,1115
2023-03-16T06:30:52.478Z,1105
2023-03-16T06:36:10.757Z,1092
2023-03-16T06:41:29.650Z,1079
2023-03-16T06:46:48.200Z,1079
2023-03-16T06:51:51.052Z,1068
2023-03-16T06:57:09.833Z,1054
2023-03-16T07:02:28.326Z,1047
2023-03-16T07:07:46.544Z,1042
2023-03-16T07:13:05.025Z,1035
2023-03-16T07:18:23.539Z,1027
2023-03-16T07:23:41.589Z,1018
2023-03-16T07:29:00.121Z,1007
2023-03-16T07:34:18.900Z,1002
2023-03-16T07:39:37.635Z,991
2023-03-16T07:44:55.662Z,976
2023-03-16T07:50:14.453Z,971
2023-03-16T07:55:33.226Z,961
2023-03-16T08:00:51.733Z,951
2023-03-16T08:06:09.961Z,945
2023-03-16T08:11:28.542Z,944
2023-03-16T08:16:47.280Z,941
2023-03-16T08:22:06.145Z,940
2023-03-16T08:27:24.633Z,938
2023-03-16T08:32:43.452Z,935
2023-03-16T08:38:01.701Z,927
2023-03-16T08:43:19.614Z,922
2023-03-16T08:48:37.534Z,923
2023-03-16T08:53:56.325Z,919
2023-03-16T08:59:27.213Z,918
2023-03-16T09:04:48.722Z,911
2023-03-16T09:10:07.227Z,911
2023-03-16T09:15:25.552Z,904
2023-03-16T09:20:44.013Z,902
2023-03-16T09:26:03.620Z,898
2023-03-16T09:31:22.401Z,893
2023-03-16T09:36:41.171Z,893
2023-03-16T09:41:59.982Z,886
2023-03-16T09:47:18.090Z,882
2023-03-16T09:52:36.472Z,886
2023-03-16T09:57:54.397Z,882
2023-03-16T10:03:12.596Z,876
2023-03-16T10:08:30.515Z,871
2023-03-16T10:13:49.279Z,872
2023-03-16T10:19:07.827Z,869
2023-03-16T10:24:26.608Z,876
2023-03-16T10:29:45.334Z,871
2023-03-16T10:35:03.989Z,873
2023-03-16T10:40:06.774Z,882
2023-03-16T10:45:25.026Z,876
2023-03-16T10:50:43.613Z,876
2023-03-16T10:56:01.801Z,875
2023-03-16T11:01:20.430Z,872
2023-03-16T11:06:23.409Z,866
2023-03-16T11:11:41.607Z,863
2023-03-16T11:16:59.871Z,864
2023-03-16T11:22:18.739Z,866
2023-03-16T11:27:36.938Z,858
2023-03-16T11:32:55.218Z,861
2023-03-16T11:38:15.223Z,860
2023-03-16T11:43:33.984Z,851
2023-03-16T11:48:52.479Z,848
2023-03-16T11:54:10.401Z,841
2023-03-16T11:59:12.979Z,838
2023-03-16T12:04:31.797Z,834
2023-03-16T12:09:50.502Z,824
2023-03-16T12:15:09.006Z,818
2023-03-16T12:20:27.245Z,813
2023-03-16T12:25:45.432Z,815
2023-03-16T12:31:03.963Z,807
2023-03-16T12:36:22.425Z,808
2023-03-16T12:41:40.620Z,809
2023-03-16T12:46:59.100Z,809
2023-03-16T12:52:17.326Z,807
2023-03-16T12:57:37.568Z,810
2023-03-16T13:02:56.743Z,809
2023-03-16T13:08:14.695Z,810
2023-03-16T13:13:32.891Z,810
2023-03-16T13:18:51.681Z,807
2023-03-16T13:24:15.769Z,809
2023-03-16T13:29:35.227Z,813
2023-03-16T13:34:57.023Z,810
2023-03-16T13:40:15.820Z,810
2023-03-16T13:45:34.458Z,804
2023-03-16T13:50:53.305Z,804
2023-03-16T13:56:11.805Z,803
2023-03-16T14:01:29.812Z,798
2023-03-16T14:06:32.911Z,796
2023-03-16T14:11:51.710Z,793
2023-03-16T14:17:10.462Z,790
2023-03-16T14:22:28.962Z,786
2023-03-16T14:27:31.560Z,787
2023-03-16T14:32:49.809Z,789
2023-03-16T14:38:08.379Z,783
2023-03-16T14:43:26.857Z,781
2023-03-16T14:48:45.558Z,781
2023-03-16T14:54:04.018Z,775
2023-03-16T14:59:22.795Z,768
2023-03-16T15:04:41.018Z,777
2023-03-16T15:09:59.814Z,772
2023-03-16T15:15:18.631Z,768
2023-03-16T15:20:37.410Z,765
2023-03-16T15:25:55.589Z,757
2023-03-16T15:31:13.879Z,761
2023-03-16T15:36:32.666Z,753
2023-03-16T15:41:50.841Z,753
2023-03-16T15:47:08.792Z,750
2023-03-16T15:52:27.615Z,751
2023-03-16T15:57:51.324Z,748
2023-03-16T16:02:54.234Z,745
2023-03-16T16:08:12.678Z,740
2023-03-16T16:13:43.364Z,738
2023-03-16T16:19:05.306Z,767
2023-03-16T16:24:24.470Z,794
2023-03-16T16:29:43.285Z,804
2023-03-16T16:35:04.688Z,807
2023-03-16T16:40:23.860Z,802
2023-03-16T16:45:42.488Z,800
2023-03-16T16:51:00.477Z,794
2023-03-16T16:56:18.697Z,784
2023-03-16T17:01:36.920Z,780
2023-03-16T17:06:55.394Z,774
2023-03-16T17:12:13.677Z,773
2023-03-16T17:17:31.888Z,776
2023-03-16T17:22:50.433Z,870
2023-03-16T17:28:08.628Z,829
2023-03-16T17:33:27.118Z,872
2023-03-16T17:38:45.659Z,887
2023-03-16T17:43:47.944Z,882
2023-03-16T17:49:06.537Z,873
2023-03-16T17:54:25.347Z,851
2023-03-16T17:59:43.860Z,832
2023-03-16T18:05:02.636Z,806
2023-03-16T18:10:24.084Z,778
2023-03-16T18:15:42.577Z,760
2023-03-16T18:21:01.044Z,742
2023-03-16T18:26:19.567Z,734
2023-03-16T18:31:38.470Z,727
2023-03-16T18:36:57.100Z,711
2023-03-16T18:42:15.586Z,674
2023-03-16T18:47:34.069Z,677
2023-03-16T18:52:52.587Z,671
2023-03-16T18:58:10.922Z,675
2023-03-16T19:03:29.492Z,667
2023-03-16T19:08:47.720Z,668
2023-03-16T19:14:06.348Z,694
2023-03-16T19:19:24.669Z,715
2023-03-16T19:24:43.406Z,719
2023-03-16T19:30:01.651Z,709
2023-03-16T19:35:20.431Z,713
2023-03-16T19:40:39.268Z,714
2023-03-16T19:45:57.259Z,717
2023-03-16T19:51:15.560Z,727
2023-03-16T19:56:33.769Z,740
2023-03-16T20:01:52.003Z,752
2023-03-16T20:07:10.484Z,763
2023-03-16T20:12:28.760Z,770
2023-03-16T20:17:47.313Z,777
2023-03-16T20:23:05.934Z,791
2023-03-16T20:28:24.735Z,819
2023-03-16T20:33:43.524Z,836
2023-03-16T20:39:02.019Z,860
2023-03-16T20:44:20.320Z,885
2023-03-16T20:49:38.811Z,910
2023-03-16T20:54:57.072Z,932
2023-03-16T21:00:16.072Z,1006
2023-03-16T21:05:34.283Z,1003
2023-03-16T21:10:54.010Z,1021
2023-03-16T21:16:12.542Z,1007
2023-03-16T21:21:31.113Z,1066
2023-03-16T21:26:49.378Z,1117
2023-03-16T21:32:07.592Z,1148
2023-03-16T21:37:26.134Z,1174
2023-03-16T21:42:44.646Z,1194
2023-03-16T21:48:02.785Z,1217
2023-03-16T21:53:20.728Z,1211
2023-03-16T21:58:39.481Z,1216
2023-03-16T22:03:57.743Z,1221
2023-03-16T22:09:15.966Z,1228
2023-03-16T22:14:34.441Z,1241
2023-03-16T22:19:52.665Z,1243
2023-03-16T22:25:11.165Z,1254
2023-03-16T22:30:29.375Z,1263
2023-03-16T22:35:47.889Z,1264
2023-03-16T22:41:06.372Z,1278
2023-03-16T22:46:25.364Z,1287
2023-03-16T22:51:43.839Z,1301
2023-03-16T22:57:02.343Z,1310
2023-03-16T23:02:20.634Z,1316
2023-03-16T23:07:39.385Z,1323
2023-03-16T23:12:58.179Z,1324
2023-03-16T23:18:16.388Z,1329
2023-03-16T23:23:35.137Z,1335
2023-03-16T23:28:53.380Z,1338
2023-03-16T23:34:11.753Z,1347
2023-03-16T23:39:29.986Z,1351
2023-03-16T23:44:48.214Z,1352
2023-03-16T23:50:06.508Z,1360
2023-03-16T23:55:25.289Z,1355
